Time;durP1;ratioP1;P1;durP2;ratioP2;P2;SDS_P1;SDS_P2;PMS_P1;PMS_P2;Temp;Humidity;BMP_temperature;BMP_pressure;BME280_temperature;BME280_humidity;BME280_pressure;Samples;Min_cycle;Max_cycle;Signal;HPM_P1;HPM_P2
2022/07/15 00:00:27;;;;;;;8.77;3.50;;;;;;;;;;5041103;28;20426;-75
2022/07/15 00:02:54;;;;;;;14.65;5.00;;;;;;;;;;5039886;28;20412;-75
2022/07/15 00:05:21;;;;;;;10.23;3.80;;;;;;;;;;5040905;28;20438;-75
2022/07/15 00:07:47;;;;;;;14.73;4.38;;;;;;;;;;5040186;28;20407;-75
2022/07/15 00:10:18;;;;;;;9.77;3.90;;;;;;;;;;5040624;28;20415;-75
2022/07/15 00:12:45;;;;;;;11.25;3.72;;;;;;;;;;5038994;28;20920;-75
2022/07/15 00:15:12;;;;;;;15.13;4.43;;;;;;;;;;5039670;28;20410;-75
2022/07/15 00:17:39;;;;;;;10.35;3.90;;;;;;;;;;5039476;28;20766;-75
2022/07/15 00:20:07;;;;;;;14.07;4.00;;;;;;;;;;5040231;28;20840;-76
2022/07/15 00:22:33;;;;;;;8.85;3.92;;;;;;;;;;5037955;28;20414;-75
2022/07/15 00:25:00;;;;;;;12.15;3.45;;;;;;;;;;5039336;28;20437;-75
2022/07/15 00:27:26;;;;;;;7.30;2.90;;;;;;;;;;5038996;28;20423;-75
2022/07/15 00:29:52;;;;;;;9.82;3.47;;;;;;;;;;5040613;28;20418;-75
2022/07/15 00:32:18;;;;;;;7.30;2.20;;;;;;;;;;5040507;28;20409;-76
2022/07/15 00:34:45;;;;;;;5.85;2.35;;;;;;;;;;5059664;22;20442;-74
2022/07/15 00:37:12;;;;;;;10.10;2.65;;;;;;;;;;5048327;28;20417;-75
2022/07/15 00:39:39;;;;;;;9.07;2.90;;;;;;;;;;5049369;28;20425;-74
2022/07/15 00:42:05;;;;;;;8.73;2.38;;;;;;;;;;5047201;28;20425;-74
2022/07/15 00:44:31;;;;;;;7.80;2.50;;;;;;;;;;5048773;28;20420;-75
2022/07/15 00:47:00;;;;;;;8.63;2.95;;;;;;;;;;5049267;28;20433;-74
2022/07/15 00:49:26;;;;;;;9.38;2.67;;;;;;;;;;5048798;28;20417;-74
2022/07/15 00:51:53;;;;;;;6.80;2.25;;;;;;;;;;5048794;28;20901;-75
2022/07/15 00:54:23;;;;;;;8.85;2.65;;;;;;;;;;5048413;28;20413;-74
2022/07/15 00:56:52;;;;;;;8.70;2.90;;;;;;;;;;5048130;28;20471;-74
2022/07/15 00:59:18;;;;;;;6.23;2.03;;;;;;;;;;5047474;28;20492;-74
2022/07/15 01:01:45;;;;;;;9.02;2.60;;;;;;;;;;5048311;28;20416;-74
2022/07/15 01:04:13;;;;;;;8.63;2.30;;;;;;;;;;5047057;28;20499;-74
2022/07/15 01:06:39;;;;;;;7.90;2.50;;;;;;;;;;5047774;28;20429;-74
2022/07/15 01:09:06;;;;;;;11.00;3.20;;;;;;;;;;5047177;28;20417;-75
2022/07/15 01:11:33;;;;;;;9.23;3.08;;;;;;;;;;5047963;28;20409;-74
2022/07/15 01:14:00;;;;;;;6.82;2.42;;;;;;;;;;5046959;28;20432;-74
2022/07/15 01:16:27;;;;;;;6.90;2.65;;;;;;;;;;5047163;28;20413;-75
2022/07/15 01:18:53;;;;;;;9.07;2.90;;;;;;;;;;5048705;28;20417;-75
2022/07/15 01:21:21;;;;;;;9.98;2.70;;;;;;;;;;5048254;28;20421;-74
2022/07/15 01:23:47;;;;;;;8.47;2.33;;;;;;;;;;5048559;28;20493;-75
2022/07/15 01:26:14;;;;;;;8.75;2.72;;;;;;;;;;5048230;28;20936;-75
2022/07/15 01:28:41;;;;;;;7.25;2.65;;;;;;;;;;5048139;28;20421;-74
2022/07/15 01:31:07;;;;;;;5.13;2.35;;;;;;;;;;5048182;28;20893;-74
2022/07/15 01:33:34;;;;;;;11.43;3.13;;;;;;;;;;5046748;28;20417;-75
2022/07/15 01:36:01;;;;;;;8.83;2.70;;;;;;;;;;5047492;28;20405;-75
2022/07/15 01:38:29;;;;;;;8.27;2.13;;;;;;;;;;5047756;28;20475;-75
2022/07/15 01:40:56;;;;;;;7.47;2.30;;;;;;;;;;5047739;28;20409;-74
2022/07/15 01:43:22;;;;;;;4.80;2.00;;;;;;;;;;5047504;28;20409;-74
2022/07/15 01:45:48;;;;;;;7.25;3.17;;;;;;;;;;5048154;28;20429;-74
2022/07/15 01:50:56;;;;;;;7.60;2.88;;;;;;;;;;5045199;28;20397;-74
2022/07/15 01:53:23;;;;;;;10.57;2.33;;;;;;;;;;5047095;28;20571;-75
2022/07/15 01:55:51;;;;;;;6.85;2.47;;;;;;;;;;5047772;28;20413;-75
2022/07/15 01:58:17;;;;;;;10.57;2.58;;;;;;;;;;5047551;28;20405;-74
2022/07/15 02:00:43;;;;;;;10.07;2.80;;;;;;;;;;5048647;28;20773;-74
2022/07/15 02:03:10;;;;;;;7.18;2.70;;;;;;;;;;5046649;28;21408;-74
2022/07/15 02:05:36;;;;;;;9.75;2.80;;;;;;;;;;5047378;28;20429;-75
2022/07/15 02:08:03;;;;;;;7.20;2.30;;;;;;;;;;5045064;28;20417;-74
2022/07/15 02:10:39;;;;;;;5.10;2.23;;;;;;;;;;5047308;28;20421;-74
2022/07/15 02:13:06;;;;;;;8.52;2.78;;;;;;;;;;5046207;28;20416;-74
2022/07/15 02:15:33;;;;;;;9.25;2.53;;;;;;;;;;5047305;28;20410;-75
2022/07/15 02:18:00;;;;;;;9.30;2.70;;;;;;;;;;5045495;28;20841;-74
2022/07/15 02:20:26;;;;;;;12.30;3.03;;;;;;;;;;5048110;28;20412;-75
2022/07/15 02:22:52;;;;;;;10.65;2.80;;;;;;;;;;5047940;28;20421;-74
2022/07/15 02:25:19;;;;;;;6.00;1.90;;;;;;;;;;5046572;28;20466;-75
2022/07/15 02:27:45;;;;;;;6.82;2.15;;;;;;;;;;5047351;28;20419;-74
2022/07/15 02:30:13;;;;;;;7.38;2.30;;;;;;;;;;5047528;28;20937;-75
2022/07/15 02:32:40;;;;;;;6.32;2.40;;;;;;;;;;5047115;28;20411;-75
2022/07/15 02:35:08;;;;;;;8.23;2.15;;;;;;;;;;5047277;28;20504;-75
2022/07/15 02:37:34;;;;;;;6.32;2.00;;;;;;;;;;5046864;28;20414;-75
2022/07/15 02:40:00;;;;;;;5.32;2.30;;;;;;;;;;5047481;28;20440;-75
2022/07/15 02:42:27;;;;;;;5.13;2.15;;;;;;;;;;5045762;28;20409;-75
2022/07/15 02:44:53;;;;;;;7.00;2.00;;;;;;;;;;5047079;28;20770;-75
2022/07/15 02:47:21;;;;;;;7.93;2.20;;;;;;;;;;5046676;28;20425;-75
2022/07/15 02:49:47;;;;;;;7.20;2.10;;;;;;;;;;5047128;28;20413;-74
2022/07/15 02:52:13;;;;;;;7.60;2.20;;;;;;;;;;5046183;28;20925;-74
2022/07/15 02:54:39;;;;;;;8.90;2.47;;;;;;;;;;5047118;28;20900;-75
2022/07/15 02:57:06;;;;;;;7.82;2.00;;;;;;;;;;5045669;28;20420;-75
2022/07/15 02:59:33;;;;;;;11.00;2.38;;;;;;;;;;5046257;28;20777;-75
2022/07/15 03:01:59;;;;;;;11.45;2.75;;;;;;;;;;5046745;28;20428;-74
2022/07/15 03:04:27;;;;;;;7.18;2.38;;;;;;;;;;5045648;28;20417;-75
2022/07/15 03:06:53;;;;;;;6.38;2.00;;;;;;;;;;5046801;28;20425;-75
2022/07/15 03:09:19;;;;;;;7.65;1.98;;;;;;;;;;5045909;28;20413;-75
2022/07/15 03:11:46;;;;;;;8.20;1.93;;;;;;;;;;5047030;28;20413;-75
2022/07/15 03:14:12;;;;;;;9.07;2.20;;;;;;;;;;5044663;28;20428;-75
2022/07/15 03:16:38;;;;;;;8.85;2.55;;;;;;;;;;5045977;28;20409;-75
2022/07/15 03:19:05;;;;;;;7.80;2.20;;;;;;;;;;5045342;28;20413;-75
2022/07/15 03:21:32;;;;;;;7.25;2.70;;;;;;;;;;5050536;28;20432;-75
2022/07/15 03:23:59;;;;;;;7.90;2.58;;;;;;;;;;5049024;28;20421;-74
2022/07/15 03:26:25;;;;;;;6.10;2.63;;;;;;;;;;5050183;28;20429;-75
2022/07/15 03:28:51;;;;;;;9.50;2.63;;;;;;;;;;5049854;28;20428;-74
2022/07/15 03:31:18;;;;;;;9.25;2.40;;;;;;;;;;5050280;28;20416;-74
2022/07/15 03:33:44;;;;;;;9.10;2.38;;;;;;;;;;5050146;28;20417;-75
2022/07/15 03:36:10;;;;;;;11.37;2.80;;;;;;;;;;5050747;28;20777;-75
2022/07/15 03:38:38;;;;;;;7.05;2.33;;;;;;;;;;5050211;28;20420;-74
2022/07/15 03:41:04;;;;;;;7.97;2.60;;;;;;;;;;5050552;28;20425;-74
2022/07/15 03:43:31;;;;;;;7.15;2.70;;;;;;;;;;5049601;28;20413;-75
2022/07/15 03:45:57;;;;;;;8.57;2.60;;;;;;;;;;5050834;28;20429;-75
2022/07/15 03:48:23;;;;;;;8.10;2.45;;;;;;;;;;5049335;28;20424;-75
2022/07/15 03:50:50;;;;;;;7.00;2.35;;;;;;;;;;5050382;28;21201;-76
2022/07/15 03:53:16;;;;;;;11.35;2.90;;;;;;;;;;5049585;28;20418;-76
2022/07/15 03:55:44;;;;;;;8.45;2.80;;;;;;;;;;5050005;28;20413;-76
2022/07/15 03:58:10;;;;;;;9.30;2.65;;;;;;;;;;5049240;28;20964;-76
2022/07/15 04:00:36;;;;;;;6.32;2.42;;;;;;;;;;5050557;28;20425;-76
2022/07/15 04:03:03;;;;;;;9.00;2.60;;;;;;;;;;5048914;28;20425;-76
2022/07/15 04:05:29;;;;;;;8.55;2.80;;;;;;;;;;5049292;28;20448;-76
2022/07/15 04:07:55;;;;;;;7.43;2.42;;;;;;;;;;5048246;28;20410;-76
2022/07/15 04:10:21;;;;;;;7.68;2.63;;;;;;;;;;5050416;28;20416;-76
2022/07/15 04:12:49;;;;;;;7.75;2.90;;;;;;;;;;5049038;28;20421;-76
2022/07/15 04:15:15;;;;;;;12.43;2.80;;;;;;;;;;5049332;28;20794;-76
2022/07/15 04:17:42;;;;;;;7.80;2.70;;;;;;;;;;5048223;28;21407;-76
2022/07/15 04:20:09;;;;;;;7.97;2.70;;;;;;;;;;5048876;28;20417;-76
2022/07/15 04:22:39;;;;;;;7.60;2.90;;;;;;;;;;5047318;28;20769;-76
2022/07/15 04:25:07;;;;;;;9.70;2.97;;;;;;;;;;5049411;28;20417;-76
2022/07/15 04:27:33;;;;;;;6.53;2.50;;;;;;;;;;5048100;28;20410;-74
2022/07/15 04:30:01;;;;;;;11.70;3.28;;;;;;;;;;5049627;28;20436;-77
2022/07/15 04:32:27;;;;;;;10.05;2.50;;;;;;;;;;5048793;28;20466;-76
2022/07/15 04:34:54;;;;;;;6.73;2.37;;;;;;;;;;5048397;28;20475;-76
2022/07/15 04:37:21;;;;;;;10.60;3.35;;;;;;;;;;5048651;28;20416;-77
2022/07/15 04:39:48;;;;;;;10.73;2.83;;;;;;;;;;5049341;28;20811;-76
2022/07/15 04:42:14;;;;;;;12.85;2.85;;;;;;;;;;5049015;28;20781;-75
2022/07/15 04:44:40;;;;;;;10.53;2.67;;;;;;;;;;5050046;28;20413;-76
2022/07/15 04:47:08;;;;;;;8.40;2.63;;;;;;;;;;5048564;28;21025;-76
2022/07/15 04:52:14;;;;;;;8.70;2.50;;;;;;;;;;5005103;28;20485;-76
2022/07/15 04:54:41;;;;;;;8.82;2.83;;;;;;;;;;5049576;28;20424;-76
2022/07/15 04:57:07;;;;;;;6.33;2.23;;;;;;;;;;5047646;28;20417;-76
2022/07/15 04:59:33;;;;;;;8.07;2.42;;;;;;;;;;5049463;28;20904;-76
2022/07/15 05:02:00;;;;;;;9.18;2.80;;;;;;;;;;5048521;28;20421;-76
2022/07/15 05:04:27;;;;;;;8.57;2.30;;;;;;;;;;5048196;28;20777;-76
2022/07/15 05:06:54;;;;;;;8.82;2.40;;;;;;;;;;5048630;28;20433;-76
2022/07/15 05:09:20;;;;;;;7.97;2.58;;;;;;;;;;5048470;28;20429;-76
2022/07/15 05:11:46;;;;;;;5.60;1.75;;;;;;;;;;5048958;28;20896;-75
2022/07/15 05:14:13;;;;;;;6.40;2.20;;;;;;;;;;5047322;28;20421;-76
2022/07/15 05:16:39;;;;;;;7.47;2.35;;;;;;;;;;5047249;28;20433;-76
2022/07/15 05:19:06;;;;;;;6.10;2.20;;;;;;;;;;5047291;28;20905;-76
2022/07/15 05:21:33;;;;;;;9.40;3.00;;;;;;;;;;5048663;28;20431;-76
2022/07/15 05:23:59;;;;;;;8.38;2.28;;;;;;;;;;5047719;28;20424;-76
2022/07/15 05:26:26;;;;;;;5.20;2.15;;;;;;;;;;5048786;28;20785;-76
2022/07/15 05:28:52;;;;;;;12.95;2.70;;;;;;;;;;5048010;28;20425;-76
2022/07/15 05:31:18;;;;;;;8.43;2.25;;;;;;;;;;5047737;28;20432;-76
2022/07/15 05:33:45;;;;;;;6.65;2.50;;;;;;;;;;5047918;28;20413;-76
2022/07/15 05:36:12;;;;;;;8.65;2.42;;;;;;;;;;5047966;28;20413;-76
2022/07/15 05:38:39;;;;;;;4.53;1.90;;;;;;;;;;5047609;28;20420;-76
2022/07/15 05:41:05;;;;;;;6.18;2.30;;;;;;;;;;5048193;28;20496;-76
2022/07/15 05:43:32;;;;;;;9.57;1.73;;;;;;;;;;5046557;28;20428;-76
2022/07/15 05:45:58;;;;;;;10.55;1.80;;;;;;;;;;5048434;28;20417;-76
2022/07/15 05:48:24;;;;;;;5.07;1.90;;;;;;;;;;5047179;28;20413;-76
2022/07/15 05:50:51;;;;;;;4.25;1.67;;;;;;;;;;5048673;28;20420;-76
2022/07/15 05:53:17;;;;;;;4.35;1.50;;;;;;;;;;5048069;28;20421;-76
2022/07/15 05:55:45;;;;;;;4.70;1.90;;;;;;;;;;5048281;28;20420;-76
2022/07/15 05:58:11;;;;;;;7.03;2.03;;;;;;;;;;5047881;28;20417;-76
2022/07/15 06:00:38;;;;;;;4.75;1.50;;;;;;;;;;5048772;28;20766;-75
2022/07/15 06:03:04;;;;;;;5.53;1.67;;;;;;;;;;5047325;28;20785;-76
2022/07/15 06:05:31;;;;;;;7.00;1.70;;;;;;;;;;5046790;28;20420;-76
2022/07/15 06:07:57;;;;;;;6.97;2.00;;;;;;;;;;5047336;28;20909;-76
2022/07/15 06:10:24;;;;;;;6.70;2.10;;;;;;;;;;5048601;28;20414;-76
2022/07/15 06:12:52;;;;;;;9.43;2.10;;;;;;;;;;5046957;28;20412;-76
2022/07/15 06:15:19;;;;;;;6.05;1.70;;;;;;;;;;5048197;28;20425;-76
2022/07/15 06:17:45;;;;;;;6.55;2.20;;;;;;;;;;5047459;28;20413;-76
2022/07/15 06:20:12;;;;;;;5.30;1.60;;;;;;;;;;5046374;28;20424;-76
2022/07/15 06:22:39;;;;;;;6.95;1.80;;;;;;;;;;5046529;28;20427;-76
2022/07/15 06:25:06;;;;;;;7.10;2.30;;;;;;;;;;5047722;28;20409;-76
2022/07/15 06:27:34;;;;;;;3.85;1.83;;;;;;;;;;5045705;28;20435;-76
2022/07/15 06:30:01;;;;;;;4.80;1.60;;;;;;;;;;5047005;28;20421;-76
2022/07/15 06:32:28;;;;;;;5.65;1.30;;;;;;;;;;5046318;28;20413;-76
2022/07/15 06:34:54;;;;;;;5.20;1.48;;;;;;;;;;5066675;22;20626;-76
2022/07/15 06:37:21;;;;;;;7.40;1.73;;;;;;;;;;5056051;28;20437;-77
2022/07/15 06:39:47;;;;;;;4.87;1.40;;;;;;;;;;5056284;28;20419;-76
2022/07/15 06:42:13;;;;;;;7.97;1.55;;;;;;;;;;5054743;28;20427;-76
2022/07/15 06:44:40;;;;;;;6.13;1.40;;;;;;;;;;5047462;28;20428;-76
2022/07/15 06:47:08;;;;;;;6.82;1.85;;;;;;;;;;5035546;28;20803;-77
2022/07/15 06:49:35;;;;;;;4.60;1.40;;;;;;;;;;5037661;28;20422;-77
2022/07/15 06:52:01;;;;;;;8.20;1.77;;;;;;;;;;5037716;28;20984;-76
2022/07/15 06:54:27;;;;;;;5.22;1.30;;;;;;;;;;5038398;28;20418;-76
2022/07/15 06:56:53;;;;;;;7.53;1.30;;;;;;;;;;5036799;28;20435;-76
2022/07/15 06:59:20;;;;;;;5.20;1.30;;;;;;;;;;5040718;28;20794;-76
2022/07/15 07:01:47;;;;;;;7.03;1.53;;;;;;;;;;5041666;28;20477;-75
2022/07/15 07:04:14;;;;;;;6.13;1.20;;;;;;;;;;5039551;28;20429;-74
2022/07/15 07:06:41;;;;;;;5.77;1.33;;;;;;;;;;5041928;28;20420;-74
2022/07/15 07:09:08;;;;;;;7.57;1.38;;;;;;;;;;5040871;28;20409;-74
2022/07/15 07:11:34;;;;;;;4.75;1.60;;;;;;;;;;5041558;28;20425;-75
2022/07/15 07:14:01;;;;;;;4.07;1.30;;;;;;;;;;5039206;28;20413;-74
2022/07/15 07:16:27;;;;;;;4.65;1.40;;;;;;;;;;5040944;28;20418;-74
2022/07/15 07:18:54;;;;;;;3.33;1.13;;;;;;;;;;5040392;28;20432;-74
2022/07/15 07:21:21;;;;;;;5.60;1.33;;;;;;;;;;5041028;28;20424;-75
2022/07/15 07:23:48;;;;;;;3.90;1.00;;;;;;;;;;5040355;28;20424;-74
2022/07/15 07:26:15;;;;;;;8.52;1.60;;;;;;;;;;5040638;28;20506;-74
2022/07/15 07:28:41;;;;;;;5.88;1.50;;;;;;;;;;5040627;28;20419;-74
2022/07/15 07:31:08;;;;;;;4.97;1.52;;;;;;;;;;5040109;28;20413;-74
2022/07/15 07:33:34;;;;;;;7.22;1.63;;;;;;;;;;5040675;28;20419;-74
2022/07/15 07:36:01;;;;;;;4.57;1.48;;;;;;;;;;5040461;28;20441;-74
2022/07/15 07:38:29;;;;;;;3.67;1.37;;;;;;;;;;5040589;28;20429;-74
2022/07/15 07:40:55;;;;;;;5.65;1.40;;;;;;;;;;5040542;28;20417;-74
2022/07/15 07:43:21;;;;;;;4.72;1.30;;;;;;;;;;5039523;28;20450;-74
2022/07/15 07:45:48;;;;;;;3.10;1.17;;;;;;;;;;5040699;28;20409;-74
2022/07/15 07:48:16;;;;;;;4.18;1.23;;;;;;;;;;5038298;28;20437;-74
2022/07/15 07:50:43;;;;;;;3.22;1.27;;;;;;;;;;5041072;28;20425;-74
2022/07/15 07:53:10;;;;;;;2.13;1.20;;;;;;;;;;5039099;28;20445;-74
2022/07/15 07:55:38;;;;;;;5.70;1.70;;;;;;;;;;5040932;28;20411;-74
2022/07/15 07:58:04;;;;;;;2.88;1.17;;;;;;;;;;5038871;28;20413;-74
2022/07/15 08:00:32;;;;;;;6.43;1.45;;;;;;;;;;5040791;28;20424;-74
2022/07/15 08:03:00;;;;;;;4.70;1.30;;;;;;;;;;5039659;28;20418;-74
2022/07/15 08:05:27;;;;;;;4.75;1.52;;;;;;;;;;5039545;28;20415;-74
2022/07/15 08:08:05;;;;;;;5.03;1.10;;;;;;;;;;5040034;28;20418;-74
2022/07/15 08:10:32;;;;;;;4.95;1.42;;;;;;;;;;5041160;28;20430;-74
2022/07/15 08:13:00;;;;;;;4.18;1.30;;;;;;;;;;5038896;28;20429;-74
2022/07/15 08:15:26;;;;;;;2.30;1.00;;;;;;;;;;5040425;28;20430;-74
2022/07/15 08:17:53;;;;;;;2.97;1.30;;;;;;;;;;5039661;28;20422;-74
2022/07/15 08:20:19;;;;;;;3.75;0.90;;;;;;;;;;5039116;28;20785;-74
2022/07/15 08:22:45;;;;;;;4.20;1.00;;;;;;;;;;5039740;28;20442;-74
2022/07/15 08:25:12;;;;;;;4.43;1.00;;;;;;;;;;5039741;28;20422;-74
2022/07/15 08:27:38;;;;;;;5.68;0.98;;;;;;;;;;5038754;28;21021;-74
2022/07/15 08:30:07;;;;;;;1.92;0.90;;;;;;;;;;5039719;28;20414;-74
2022/07/15 08:32:33;;;;;;;3.22;1.25;;;;;;;;;;5039338;28;20417;-74
2022/07/15 08:34:59;;;;;;;3.58;0.90;;;;;;;;;;5039129;28;20914;-74
2022/07/15 08:37:26;;;;;;;1.70;0.90;;;;;;;;;;5038323;28;20420;-74
2022/07/15 08:39:52;;;;;;;3.07;0.90;;;;;;;;;;5039901;28;20411;-74
2022/07/15 08:42:19;;;;;;;3.30;1.00;;;;;;;;;;5039180;28;20923;-74
2022/07/15 08:44:45;;;;;;;2.75;0.90;;;;;;;;;;5039579;28;20419;-74
2022/07/15 08:47:13;;;;;;;2.87;1.00;;;;;;;;;;5038061;28;20415;-74
2022/07/15 08:49:40;;;;;;;4.40;1.10;;;;;;;;;;5039502;28;20589;-74
2022/07/15 08:52:06;;;;;;;2.30;1.00;;;;;;;;;;5038261;28;20493;-75
2022/07/15 08:54:33;;;;;;;3.17;0.90;;;;;;;;;;5038544;28;20427;-73
2022/07/15 08:57:00;;;;;;;4.13;1.20;;;;;;;;;;5037072;28;20902;-74
2022/07/15 08:59:26;;;;;;;3.60;1.10;;;;;;;;;;5038944;28;20410;-74
2022/07/15 09:01:53;;;;;;;4.45;1.05;;;;;;;;;;5039648;28;20443;-74
2022/07/15 09:04:21;;;;;;;7.90;1.30;;;;;;;;;;5038622;28;20430;-74
2022/07/15 09:06:49;;;;;;;2.40;1.00;;;;;;;;;;5039553;28;20415;-74
2022/07/15 09:09:25;;;;;;;3.70;0.98;;;;;;;;;;5038127;28;20423;-74
2022/07/15 09:12:00;;;;;;;2.20;1.00;;;;;;;;;;5038429;28;20422;-74
2022/07/15 09:14:28;;;;;;;2.40;0.77;;;;;;;;;;5038232;28;20419;-74
2022/07/15 09:17:05;;;;;;;3.30;1.00;;;;;;;;;;5038647;28;20409;-74
2022/07/15 09:19:52;;;;;;;2.63;0.90;;;;;;;;;;5038924;28;20433;-75
2022/07/15 09:22:19;;;;;;;2.57;0.73;;;;;;;;;;5038282;28;20440;-75
2022/07/15 09:24:45;;;;;;;3.50;1.00;;;;;;;;;;5039356;28;20472;-74
2022/07/15 09:27:27;;;;;;;6.50;1.10;;;;;;;;;;5038216;28;20406;-75
2022/07/15 09:38:02;;;;;;;2.78;0.90;;;;;;;;;;5035362;28;20409;-74
2022/07/15 09:40:28;;;;;;;3.47;1.25;;;;;;;;;;5037758;28;20413;-74
2022/07/15 09:43:05;;;;;;;3.53;1.08;;;;;;;;;;5037915;28;20415;-74
2022/07/15 09:45:32;;;;;;;5.47;1.30;;;;;;;;;;5038169;28;20434;-75
2022/07/15 09:48:08;;;;;;;3.25;0.90;;;;;;;;;;5037320;28;20422;-74
2022/07/15 09:50:36;;;;;;;3.47;1.10;;;;;;;;;;5038606;28;20792;-73
2022/07/15 09:53:04;;;;;;;4.00;1.20;;;;;;;;;;5036389;28;20424;-74
2022/07/15 09:55:30;;;;;;;3.03;1.00;;;;;;;;;;5037681;28;20415;-74
2022/07/15 09:57:59;;;;;;;2.17;1.00;;;;;;;;;;5035444;28;20773;-74
2022/07/15 10:00:25;;;;;;;3.43;1.40;;;;;;;;;;5038615;28;20936;-74
2022/07/15 10:02:52;;;;;;;3.60;1.40;;;;;;;;;;5036474;28;20897;-75
2022/07/15 10:05:18;;;;;;;5.80;1.73;;;;;;;;;;5036971;28;20422;-75
2022/07/15 10:07:47;;;;;;;4.68;1.60;;;;;;;;;;5037853;28;20428;-75
2022/07/15 10:10:13;;;;;;;3.25;1.75;;;;;;;;;;5037740;28;20803;-75
2022/07/15 10:12:46;;;;;;;4.70;2.80;;;;;;;;;;5037579;28;20847;-75
2022/07/15 10:15:20;;;;;;;4.35;3.00;;;;;;;;;;5038144;28;21701;-75
2022/07/15 10:18:01;;;;;;;4.40;1.80;;;;;;;;;;5037762;28;20422;-75
2022/07/15 10:20:32;;;;;;;2.55;1.63;;;;;;;;;;5038005;28;20419;-75
2022/07/15 10:23:03;;;;;;;4.53;1.40;;;;;;;;;;5037483;28;20464;-75
2022/07/15 10:25:42;;;;;;;6.15;1.20;;;;;;;;;;5037947;28;20420;-75
2022/07/15 10:28:11;;;;;;;2.97;0.90;;;;;;;;;;5037269;28;20423;-75
2022/07/15 10:30:39;;;;;;;1.95;0.80;;;;;;;;;;5037249;28;20419;-75
2022/07/15 10:33:14;;;;;;;3.35;1.10;;;;;;;;;;5037715;28;20453;-75
2022/07/15 10:35:41;;;;;;;2.83;0.90;;;;;;;;;;5037326;28;20414;-75
2022/07/15 10:38:38;;;;;;;3.63;1.00;;;;;;;;;;5036126;28;20413;-74
2022/07/15 10:41:10;;;;;;;4.20;0.90;;;;;;;;;;5038210;28;20417;-75
2022/07/15 10:43:40;;;;;;;3.60;1.30;;;;;;;;;;5037557;28;20423;-75
2022/07/15 10:46:17;;;;;;;3.88;1.10;;;;;;;;;;5037895;28;20409;-75
2022/07/15 10:48:43;;;;;;;3.38;1.00;;;;;;;;;;5036851;28;20421;-74
2022/07/15 10:51:10;;;;;;;3.60;0.80;;;;;;;;;;5037108;28;20418;-75
2022/07/15 10:53:43;;;;;;;2.88;0.93;;;;;;;;;;5036583;28;20994;-75
2022/07/15 10:56:24;;;;;;;1.70;0.90;;;;;;;;;;5036910;28;20425;-75
2022/07/15 10:59:05;;;;;;;2.85;1.20;;;;;;;;;;5036858;28;20413;-74
2022/07/15 11:01:33;;;;;;;2.75;0.95;;;;;;;;;;5037030;28;20779;-74
2022/07/15 11:04:13;;;;;;;3.30;1.10;;;;;;;;;;5036169;28;20442;-75
2022/07/15 11:06:54;;;;;;;2.40;1.02;;;;;;;;;;5037264;28;20416;-75
2022/07/15 11:09:35;;;;;;;2.35;0.90;;;;;;;;;;5035060;28;20425;-75
2022/07/15 11:12:01;;;;;;;2.20;0.90;;;;;;;;;;5035627;28;20415;-75
2022/07/15 11:14:42;;;;;;;2.50;1.20;;;;;;;;;;5036764;28;20974;-74
2022/07/15 11:17:10;;;;;;;2.63;1.10;;;;;;;;;;5035774;28;20417;-74
2022/07/15 11:19:37;;;;;;;1.90;1.00;;;;;;;;;;5037001;28;21139;-74
2022/07/15 11:22:04;;;;;;;2.55;1.00;;;;;;;;;;5037365;28;20415;-74
2022/07/15 11:24:31;;;;;;;1.63;1.08;;;;;;;;;;5036536;28;20486;-74
2022/07/15 11:27:00;;;;;;;3.90;1.20;;;;;;;;;;5037595;28;20446;-74
2022/07/15 11:29:26;;;;;;;3.57;1.13;;;;;;;;;;5035794;28;20419;-74
2022/07/15 11:31:53;;;;;;;1.70;0.80;;;;;;;;;;5037141;28;20417;-74
2022/07/15 11:34:21;;;;;;;4.05;1.00;;;;;;;;;;5036435;28;21054;-74
2022/07/15 11:36:57;;;;;;;1.98;0.82;;;;;;;;;;5037374;28;20432;-74
2022/07/15 11:39:30;;;;;;;1.50;0.90;;;;;;;;;;5036989;28;20417;-74
2022/07/15 11:44:36;;;;;;;2.03;0.98;;;;;;;;;;4985779;28;20399;-74
2022/07/15 11:47:03;;;;;;;1.88;1.10;;;;;;;;;;5040732;28;20430;-74
2022/07/15 11:49:31;;;;;;;2.90;1.00;;;;;;;;;;5039875;28;20426;-74
2022/07/15 11:51:57;;;;;;;3.90;0.90;;;;;;;;;;5039810;28;20430;-74
2022/07/15 11:54:25;;;;;;;1.65;0.95;;;;;;;;;;5040048;28;20425;-74
2022/07/15 11:56:53;;;;;;;3.47;1.00;;;;;;;;;;5039279;28;20425;-74
2022/07/15 11:59:20;;;;;;;2.42;1.00;;;;;;;;;;5040256;28;20413;-74
2022/07/15 12:01:46;;;;;;;4.90;1.30;;;;;;;;;;5039421;28;20471;-74
2022/07/15 12:04:12;;;;;;;4.97;1.20;;;;;;;;;;5038471;28;20425;-74
2022/07/15 12:06:40;;;;;;;3.88;1.20;;;;;;;;;;5039863;28;20421;-74
2022/07/15 12:09:08;;;;;;;3.53;1.10;;;;;;;;;;5038804;28;20929;-75
2022/07/15 12:11:35;;;;;;;3.53;1.40;;;;;;;;;;5040252;28;20424;-75
2022/07/15 12:14:02;;;;;;;7.13;1.40;;;;;;;;;;5039332;28;20520;-75
2022/07/15 12:16:30;;;;;;;7.78;2.10;;;;;;;;;;5038973;28;20804;-75
2022/07/15 12:18:57;;;;;;;3.00;1.20;;;;;;;;;;5038108;28;20415;-74
2022/07/15 12:21:24;;;;;;;3.80;1.60;;;;;;;;;;5040044;28;20415;-75
2022/07/15 12:24:02;;;;;;;3.80;1.10;;;;;;;;;;5039068;28;20425;-75
2022/07/15 12:26:28;;;;;;;2.55;1.08;;;;;;;;;;5039877;28;20428;-75
2022/07/15 12:28:55;;;;;;;3.05;1.02;;;;;;;;;;5039498;28;20415;-75
2022/07/15 12:31:25;;;;;;;2.60;1.30;;;;;;;;;;5039835;28;20415;-75
2022/07/15 12:33:51;;;;;;;1.80;1.13;;;;;;;;;;5039615;28;20429;-73
2022/07/15 12:36:18;;;;;;;3.25;1.20;;;;;;;;;;5071072;22;20907;-76
2022/07/15 12:38:45;;;;;;;4.03;1.30;;;;;;;;;;5058861;28;20416;-76
2022/07/15 12:41:24;;;;;;;2.15;1.00;;;;;;;;;;5059407;28;20429;-76
2022/07/15 12:43:51;;;;;;;2.90;1.10;;;;;;;;;;5058759;28;20428;-77
2022/07/15 12:46:19;;;;;;;1.60;0.90;;;;;;;;;;5020489;28;20443;-76
2022/07/15 12:48:47;;;;;;;1.63;0.98;;;;;;;;;;5019486;28;20506;-77
2022/07/15 12:51:14;;;;;;;2.30;0.90;;;;;;;;;;5019974;28;20454;-77
2022/07/15 12:53:41;;;;;;;3.42;1.10;;;;;;;;;;5020151;28;20510;-77
2022/07/15 12:56:07;;;;;;;4.13;1.30;;;;;;;;;;5020312;28;20442;-77
2022/07/15 12:58:37;;;;;;;1.90;0.90;;;;;;;;;;5018196;28;20954;-77
2022/07/15 13:01:04;;;;;;;2.30;0.90;;;;;;;;;;5019548;28;20514;-77
2022/07/15 13:03:31;;;;;;;3.25;1.20;;;;;;;;;;5020419;28;20427;-77
2022/07/15 13:05:58;;;;;;;2.42;1.40;;;;;;;;;;5020252;28;20431;-77
2022/07/15 13:08:25;;;;;;;4.20;1.42;;;;;;;;;;5018007;28;20993;-74
2022/07/15 13:10:53;;;;;;;3.00;1.42;;;;;;;;;;5021291;28;20445;-76
2022/07/15 13:13:21;;;;;;;3.25;1.30;;;;;;;;;;5020195;28;20506;-77
2022/07/15 13:15:49;;;;;;;5.40;1.30;;;;;;;;;;5019854;28;20909;-77
2022/07/15 13:18:16;;;;;;;2.67;0.95;;;;;;;;;;5019584;28;20427;-73
2022/07/15 13:20:43;;;;;;;1.75;0.90;;;;;;;;;;5019345;28;20424;-76
2022/07/15 13:23:10;;;;;;;1.55;0.80;;;;;;;;;;5019139;28;20426;-77
2022/07/15 13:25:36;;;;;;;1.10;0.80;;;;;;;;;;5017831;28;20419;-76
2022/07/15 13:28:03;;;;;;;1.60;0.70;;;;;;;;;;5019780;28;20476;-76
2022/07/15 13:30:29;;;;;;;1.60;0.60;;;;;;;;;;5020573;28;21268;-76
2022/07/15 13:32:57;;;;;;;1.40;0.65;;;;;;;;;;5019678;28;20450;-76
2022/07/15 13:35:23;;;;;;;1.30;0.90;;;;;;;;;;5017700;28;20417;-76
2022/07/15 13:37:49;;;;;;;1.00;0.90;;;;;;;;;;5019209;28;20431;-76
2022/07/15 13:40:16;;;;;;;1.40;0.80;;;;;;;;;;5019773;28;20771;-76
2022/07/15 13:42:42;;;;;;;0.85;0.60;;;;;;;;;;5018731;28;20416;-76
2022/07/15 13:45:10;;;;;;;1.25;0.65;;;;;;;;;;5019788;28;20415;-76
2022/07/15 13:47:36;;;;;;;1.58;0.65;;;;;;;;;;5019093;28;20415;-76
2022/07/15 13:52:51;;;;;;;1.42;0.80;;;;;;;;;;5018642;28;20812;-76
2022/07/15 13:55:18;;;;;;;2.70;0.80;;;;;;;;;;5019370;28;20909;-76
2022/07/15 13:57:45;;;;;;;1.80;0.80;;;;;;;;;;5018208;28;20436;-76
2022/07/15 14:00:12;;;;;;;2.15;0.80;;;;;;;;;;5019573;28;20419;-77
2022/07/15 14:02:39;;;;;;;1.80;0.70;;;;;;;;;;5018986;28;20419;-77
2022/07/15 14:05:07;;;;;;;1.80;0.80;;;;;;;;;;5017886;28;20422;-76
2022/07/15 14:07:34;;;;;;;2.45;0.82;;;;;;;;;;5017060;28;20418;-76
2022/07/15 14:10:00;;;;;;;1.90;0.75;;;;;;;;;;5019407;28;20430;-77
2022/07/15 14:12:27;;;;;;;2.60;1.10;;;;;;;;;;5017901;28;20438;-77
2022/07/15 14:14:53;;;;;;;2.58;1.00;;;;;;;;;;5018981;28;20430;-77
2022/07/15 14:17:19;;;;;;;2.78;0.90;;;;;;;;;;5018936;28;20937;-76
2022/07/15 14:19:46;;;;;;;4.30;1.20;;;;;;;;;;5019267;28;20407;-77
2022/07/15 14:22:13;;;;;;;1.35;0.98;;;;;;;;;;5018391;28;20427;-77
2022/07/15 14:24:40;;;;;;;2.50;1.10;;;;;;;;;;5017657;28;20426;-77
2022/07/15 14:27:06;;;;;;;2.73;1.10;;;;;;;;;;5018244;28;20416;-77
2022/07/15 14:29:33;;;;;;;2.30;1.20;;;;;;;;;;5019187;28;20429;-77
2022/07/15 14:31:59;;;;;;;5.40;1.30;;;;;;;;;;5019626;28;20413;-77
2022/07/15 14:34:25;;;;;;;2.50;1.13;;;;;;;;;;5018442;28;20431;-77
2022/07/15 14:36:52;;;;;;;4.20;1.20;;;;;;;;;;5017832;28;20430;-77
2022/07/15 14:39:20;;;;;;;4.50;1.10;;;;;;;;;;5016645;28;20424;-77
2022/07/15 14:41:46;;;;;;;3.40;1.20;;;;;;;;;;5018104;28;20421;-77
2022/07/15 14:44:12;;;;;;;3.20;1.20;;;;;;;;;;5017121;28;20411;-77
2022/07/15 14:46:39;;;;;;;2.75;1.20;;;;;;;;;;5018410;28;20891;-77
2022/07/15 14:49:05;;;;;;;2.00;1.10;;;;;;;;;;5017021;28;20425;-77
2022/07/15 14:51:31;;;;;;;6.70;1.20;;;;;;;;;;5017107;28;20436;-77
2022/07/15 14:53:58;;;;;;;2.10;0.82;;;;;;;;;;5017143;28;20422;-76
2022/07/15 14:56:25;;;;;;;1.80;0.90;;;;;;;;;;5018346;28;20419;-77
2022/07/15 14:58:52;;;;;;;1.23;0.90;;;;;;;;;;5016391;28;20419;-77
2022/07/15 15:01:18;;;;;;;1.58;1.02;;;;;;;;;;5018445;28;20408;-76
2022/07/15 15:03:44;;;;;;;2.10;0.70;;;;;;;;;;5018225;28;20427;-77